Time;durP1;ratioP1;P1;durP2;ratioP2;P2;SDS_P1;SDS_P2;PMS_P1;PMS_P2;Temp;Humidity;BMP_temperature;BMP_pressure;BME280_temperature;BME280_humidity;BME280_pressure;Samples;Min_cycle;Max_cycle;Signal;HPM_P1;HPM_P2
2022/04/12 00:00:21;;;;;;;17.70;9.68;;;7.70;99.90;;;;;;5054202;28;20036;-78
2022/04/12 00:02:46;;;;;;;16.52;8.80;;;7.70;99.90;;;;;;5054405;28;20472;-78
2022/04/12 00:05:12;;;;;;;20.63;9.23;;;7.70;99.90;;;;;;5071156;28;20044;-79
2022/04/12 00:07:43;;;;;;;15.60;9.30;;;7.60;99.90;;;;;;5072219;28;20491;-79
2022/04/12 00:10:10;;;;;;;17.77;8.98;;;7.60;99.90;;;;;;5071876;28;20041;-78
2022/04/12 00:12:37;;;;;;;16.70;9.07;;;7.60;99.90;;;;;;5054073;28;20080;-79
2022/04/12 00:15:04;;;;;;;16.23;8.70;;;7.60;99.90;;;;;;5070487;28;20053;-78
2022/04/12 00:20:15;;;;;;;17.80;9.27;;;7.50;99.90;;;;;;5071641;28;20040;-79
2022/04/12 00:22:41;;;;;;;12.25;7.88;;;7.40;99.90;;;;;;5071952;28;20040;-78
2022/04/12 00:25:10;;;;;;;15.85;9.30;;;7.50;99.90;;;;;;5070092;28;20102;-79
2022/04/12 00:27:37;;;;;;;15.27;9.70;;;7.40;99.90;;;;;;5070402;28;20036;-78
2022/04/12 00:30:05;;;;;;;13.15;8.32;;;7.40;99.90;;;;;;5053639;28;20055;-78
2022/04/12 00:32:30;;;;;;;16.67;9.35;;;7.40;99.90;;;;;;5070827;28;20127;-78
2022/04/12 00:34:56;;;;;;;17.05;9.27;;;7.30;99.90;;;;;;5071649;28;20116;-78
2022/04/12 00:37:21;;;;;;;16.98;10.32;;;7.30;99.90;;;;;;5070641;28;20055;-78
2022/04/12 00:39:47;;;;;;;14.77;8.55;;;7.30;99.90;;;;;;5069968;28;20041;-79
2022/04/12 00:42:12;;;;;;;18.30;8.88;;;7.30;99.90;;;;;;5071612;28;20038;-78
2022/04/12 00:44:38;;;;;;;14.48;8.60;;;7.20;99.90;;;;;;5053727;28;20565;-78
2022/04/12 00:47:04;;;;;;;15.90;8.68;;;7.20;99.90;;;;;;5070662;28;20502;-78
2022/04/12 00:49:29;;;;;;;14.98;9.00;;;7.20;99.90;;;;;;5071274;28;20033;-79
2022/04/12 00:51:55;;;;;;;18.95;10.80;;;7.10;99.90;;;;;;5071492;28;20036;-78
2022/04/12 00:54:23;;;;;;;15.82;9.40;;;7.10;99.90;;;;;;5070082;28;20032;-78
2022/04/12 00:56:50;;;;;;;13.95;8.10;;;7.00;99.90;;;;;;5071377;28;20415;-78
2022/04/12 00:59:16;;;;;;;15.40;8.82;;;6.90;99.90;;;;;;5070865;28;20070;-78
2022/04/12 01:01:42;;;;;;;16.42;9.55;;;6.90;99.90;;;;;;5071428;28;20037;-78
2022/04/12 01:04:08;;;;;;;16.15;9.63;;;6.90;99.90;;;;;;5071255;28;20099;-78
2022/04/12 01:06:33;;;;;;;17.67;8.82;;;6.90;99.90;;;;;;5071452;28;20043;-78
2022/04/12 01:08:59;;;;;;;15.90;8.82;;;6.90;99.90;;;;;;5070438;28;20041;-78
2022/04/12 01:11:26;;;;;;;17.58;8.70;;;6.80;99.90;;;;;;5070950;28;20036;-78
2022/04/12 01:13:52;;;;;;;19.42;9.68;;;6.70;99.90;;;;;;5071107;28;20072;-78
2022/04/12 01:16:18;;;;;;;15.48;9.02;;;6.80;99.90;;;;;;5053298;28;20094;-78
2022/04/12 01:18:44;;;;;;;14.00;8.20;;;6.70;99.90;;;;;;5071136;28;20040;-78
2022/04/12 01:21:10;;;;;;;16.42;9.32;;;6.70;99.90;;;;;;5053033;28;20037;-78
2022/04/12 01:23:53;;;;;;;17.95;9.13;;;6.70;99.90;;;;;;5071156;28;20041;-78
2022/04/12 01:26:19;;;;;;;19.13;7.97;;;6.80;99.90;;;;;;5069996;28;20051;-78
2022/04/12 01:28:45;;;;;;;13.80;8.45;;;6.80;99.90;;;;;;5070906;28;20048;-78
2022/04/12 01:31:11;;;;;;;14.35;8.30;;;6.70;99.90;;;;;;5070814;28;20051;-78
2022/04/12 01:33:36;;;;;;;14.52;8.90;;;6.70;99.90;;;;;;5070915;28;20499;-78
2022/04/12 01:36:02;;;;;;;15.30;8.43;;;6.60;99.90;;;;;;5070866;28;20044;-78
2022/04/12 01:38:28;;;;;;;16.45;9.10;;;6.60;99.90;;;;;;5069665;28;20048;-78
2022/04/12 01:40:54;;;;;;;18.20;9.18;;;6.60;99.90;;;;;;5052926;28;20687;-78
2022/04/12 01:43:19;;;;;;;13.15;7.90;;;6.60;99.90;;;;;;5070903;28;20033;-78
2022/04/12 01:45:45;;;;;;;15.07;8.48;;;6.60;99.90;;;;;;5069641;28;20379;-78
2022/04/12 01:48:10;;;;;;;16.08;8.25;;;6.60;99.90;;;;;;5070777;28;20071;-78
2022/04/12 01:50:36;;;;;;;14.73;7.88;;;6.50;99.90;;;;;;5070395;28;20044;-78
2022/04/12 01:53:01;;;;;;;15.88;8.48;;;6.60;99.90;;;;;;5069436;28;20043;-78
2022/04/12 01:55:27;;;;;;;15.93;8.63;;;6.60;99.90;;;;;;5069256;28;20049;-78
2022/04/12 01:57:53;;;;;;;18.35;7.75;;;6.60;99.90;;;;;;5069413;28;20064;-78
2022/04/12 02:00:18;;;;;;;16.40;8.73;;;6.50;99.90;;;;;;5070684;28;20431;-78
2022/04/12 02:02:44;;;;;;;17.33;8.38;;;6.50;99.90;;;;;;5069540;28;20033;-78
2022/04/12 02:05:09;;;;;;;13.50;7.93;;;6.50;99.90;;;;;;5070720;28;20372;-78
2022/04/12 02:07:35;;;;;;;16.90;9.43;;;6.50;99.90;;;;;;5070480;28;20037;-78
2022/04/12 02:10:01;;;;;;;14.20;7.93;;;6.50;99.90;;;;;;5072389;28;20484;-78
2022/04/12 02:12:26;;;;;;;13.65;8.88;;;6.50;99.90;;;;;;5074243;28;20075;-78
2022/04/12 02:14:52;;;;;;;16.35;8.40;;;6.40;99.90;;;;;;5074465;28;20047;-77
2022/04/12 02:17:18;;;;;;;16.50;8.30;;;6.40;99.90;;;;;;5074239;28;20555;-78
2022/04/12 02:19:43;;;;;;;12.82;7.57;;;6.30;99.90;;;;;;5073869;28;20040;-78
2022/04/12 02:22:10;;;;;;;16.65;8.85;;;6.30;99.90;;;;;;5072733;28;20504;-78
2022/04/12 02:24:35;;;;;;;15.75;8.18;;;6.30;99.90;;;;;;5074046;28;20048;-78
2022/04/12 02:27:01;;;;;;;15.90;8.68;;;6.30;99.90;;;;;;5073833;28;20502;-78
2022/04/12 02:29:26;;;;;;;17.50;8.85;;;6.20;99.90;;;;;;5074165;28;20041;-78
2022/04/12 02:31:52;;;;;;;17.15;8.15;;;6.30;99.90;;;;;;5073999;28;20039;-78
2022/04/12 02:34:17;;;;;;;12.68;7.43;;;6.20;99.90;;;;;;5072984;28;20033;-78
2022/04/12 02:36:43;;;;;;;13.77;7.70;;;6.10;99.90;;;;;;5073913;28;20119;-78
2022/04/12 02:39:09;;;;;;;15.02;8.75;;;6.20;99.90;;;;;;5073766;28;20064;-78
2022/04/12 02:41:36;;;;;;;12.30;7.35;;;6.10;99.90;;;;;;5077320;28;20119;-78
2022/04/12 02:44:02;;;;;;;14.27;8.45;;;6.00;99.90;;;;;;5080970;28;20049;-78
2022/04/12 02:46:27;;;;;;;14.80;7.25;;;6.10;99.90;;;;;;5074932;28;20067;-78
2022/04/12 02:48:53;;;;;;;14.75;8.68;;;6.20;99.90;;;;;;5073711;28;20476;-78
2022/04/12 02:51:18;;;;;;;14.60;7.45;;;6.00;99.90;;;;;;5073421;28;20036;-78
2022/04/12 02:53:44;;;;;;;15.93;8.20;;;6.00;99.90;;;;;;5073447;28;20040;-78
2022/04/12 02:56:09;;;;;;;19.17;7.85;;;6.00;99.90;;;;;;5073674;28;20661;-78
2022/04/12 02:58:35;;;;;;;15.60;8.15;;;6.00;99.90;;;;;;5073559;28;20041;-78
2022/04/12 03:01:01;;;;;;;13.35;7.10;;;6.00;99.90;;;;;;5073498;28;20091;-78
2022/04/12 03:03:26;;;;;;;14.77;7.28;;;5.90;99.90;;;;;;5073569;28;20040;-78
2022/04/12 03:05:52;;;;;;;12.23;7.68;;;6.00;99.90;;;;;;5073528;28;20044;-78
2022/04/12 03:08:17;;;;;;;14.65;7.63;;;6.00;99.90;;;;;;5073262;28;20503;-78
2022/04/12 03:10:43;;;;;;;17.02;7.90;;;6.00;99.90;;;;;;5073125;28;20075;-78
2022/04/12 03:13:08;;;;;;;14.68;7.63;;;6.00;99.90;;;;;;5073455;28;20036;-77
2022/04/12 03:15:34;;;;;;;14.65;8.18;;;6.00;99.90;;;;;;5073375;28;20047;-78
2022/04/12 03:17:59;;;;;;;20.52;7.80;;;6.00;99.90;;;;;;5072626;28;20048;-78
2022/04/12 03:20:25;;;;;;;12.82;7.40;;;6.00;99.90;;;;;;5054520;28;20475;-78
2022/04/12 03:22:50;;;;;;;13.38;7.53;;;6.00;99.90;;;;;;5072625;28;20036;-78
2022/04/12 03:25:16;;;;;;;16.05;8.73;;;6.10;99.90;;;;;;5073006;28;20045;-78
2022/04/12 03:27:42;;;;;;;12.85;7.30;;;6.10;99.90;;;;;;5071573;28;20048;-78
2022/04/12 03:30:08;;;;;;;12.13;7.35;;;6.20;99.90;;;;;;5071192;28;20072;-78
2022/04/12 03:32:33;;;;;;;13.10;7.22;;;6.20;99.90;;;;;;5071656;28;20135;-78
2022/04/12 03:34:59;;;;;;;12.65;7.40;;;6.20;99.90;;;;;;5071341;28;20508;-78
2022/04/12 03:37:24;;;;;;;14.85;7.65;;;6.30;99.90;;;;;;5072654;28;20036;-78
2022/04/12 03:39:51;;;;;;;11.85;7.05;;;6.20;99.90;;;;;;5072313;28;20076;-78
2022/04/12 03:42:18;;;;;;;14.73;7.63;;;6.20;99.90;;;;;;5072865;28;20074;-78
2022/04/12 03:44:45;;;;;;;17.52;7.43;;;6.20;99.90;;;;;;5071483;28;20056;-78
2022/04/12 03:47:11;;;;;;;12.52;7.13;;;6.20;99.90;;;;;;5072387;28;20114;-78
2022/04/12 03:49:36;;;;;;;14.95;7.07;;;6.30;99.90;;;;;;5072193;28;20418;-78
2022/04/12 03:52:02;;;;;;;13.60;7.25;;;6.30;99.90;;;;;;5071335;28;20071;-78
2022/04/12 03:54:28;;;;;;;16.25;7.88;;;6.30;99.90;;;;;;5072266;28;20043;-78
2022/04/12 03:56:54;;;;;;;14.82;8.32;;;6.20;99.90;;;;;;5072170;28;20515;-78
2022/04/12 03:59:19;;;;;;;14.02;8.13;;;6.20;99.90;;;;;;5072333;28;20125;-78
2022/04/12 04:01:46;;;;;;;12.88;7.80;;;6.20;99.90;;;;;;5071996;28;20041;-78
2022/04/12 04:04:12;;;;;;;12.82;7.47;;;6.20;99.90;;;;;;5054139;28;20048;-78
2022/04/12 04:06:38;;;;;;;11.80;7.10;;;6.20;99.90;;;;;;5071072;28;20098;-78
2022/04/12 04:09:03;;;;;;;15.05;7.50;;;6.10;99.90;;;;;;5070826;28;20044;-78
2022/04/12 04:11:29;;;;;;;15.07;8.13;;;6.10;99.90;;;;;;5053799;28;20052;-78
2022/04/12 04:13:55;;;;;;;13.55;7.15;;;6.10;99.90;;;;;;5072269;28;20063;-78
2022/04/12 04:16:21;;;;;;;12.77;7.65;;;6.10;99.90;;;;;;5070669;28;20051;-79
2022/04/12 04:18:46;;;;;;;14.50;7.88;;;6.10;99.90;;;;;;5071760;28;20037;-78
2022/04/12 04:21:12;;;;;;;12.85;7.50;;;6.00;99.90;;;;;;5070248;28;20032;-78
2022/04/12 04:23:37;;;;;;;15.38;7.15;;;6.00;99.90;;;;;;5071634;28;20039;-78
2022/04/12 04:26:04;;;;;;;12.25;7.63;;;6.00;99.90;;;;;;5071802;28;20098;-78
2022/04/12 04:28:29;;;;;;;14.27;7.95;;;6.00;99.90;;;;;;5070769;28;20041;-78
2022/04/12 04:30:55;;;;;;;14.18;8.02;;;5.90;99.90;;;;;;5071566;28;20492;-78
2022/04/12 04:33:21;;;;;;;14.45;8.27;;;5.90;99.90;;;;;;5053275;28;20495;-79
2022/04/12 04:35:48;;;;;;;12.07;6.80;;;5.90;99.90;;;;;;5070889;28;20044;-78
2022/04/12 04:38:14;;;;;;;12.93;7.93;;;5.90;99.90;;;;;;5070123;28;20048;-78
2022/04/12 04:40:39;;;;;;;12.35;7.57;;;5.90;99.90;;;;;;5070174;28;20037;-79
2022/04/12 04:43:06;;;;;;;13.07;7.05;;;5.80;99.90;;;;;;5053859;28;20044;-78
2022/04/12 04:45:32;;;;;;;15.05;7.45;;;5.80;99.90;;;;;;5071591;28;20036;-78
2022/04/12 04:47:59;;;;;;;16.58;8.20;;;5.80;99.90;;;;;;5071359;28;20505;-78
2022/04/12 04:50:30;;;;;;;13.68;8.55;;;5.80;99.90;;;;;;5069898;28;20132;-78
2022/04/12 04:52:56;;;;;;;14.77;8.07;;;5.80;99.90;;;;;;5071185;28;20464;-78
2022/04/12 04:55:22;;;;;;;14.45;7.95;;;5.70;99.90;;;;;;5053305;28;20050;-78
2022/04/12 04:57:48;;;;;;;12.82;7.78;;;5.70;99.90;;;;;;5069994;28;20032;-78
2022/04/12 05:00:16;;;;;;;15.52;8.00;;;5.80;99.90;;;;;;5070059;28;20077;-79
2022/04/12 05:02:44;;;;;;;18.30;9.02;;;5.70;99.90;;;;;;5074379;28;20044;-80
2022/04/12 05:05:10;;;;;;;17.08;8.63;;;5.60;99.90;;;;;;5074423;28;20040;-81
2022/04/12 05:07:37;;;;;;;13.73;7.30;;;5.70;99.90;;;;;;5072957;28;20381;-80
2022/04/12 05:10:02;;;;;;;12.65;7.30;;;5.80;99.90;;;;;;5073871;28;20093;-80
2022/04/12 05:12:28;;;;;;;13.05;7.63;;;5.70;99.90;;;;;;5074296;28;20032;-80
2022/04/12 05:14:53;;;;;;;12.30;7.25;;;5.80;99.90;;;;;;5074308;28;20099;-80
2022/04/12 05:17:26;;;;;;;12.57;6.47;;;5.80;99.90;;;;;;5073833;28;20165;-80
2022/04/12 05:19:52;;;;;;;12.93;7.10;;;5.80;99.90;;;;;;5072617;28;20101;-80
2022/04/12 05:22:19;;;;;;;14.32;7.35;;;5.90;99.90;;;;;;5072435;28;20121;-80
2022/04/12 05:24:45;;;;;;;16.33;8.35;;;5.90;99.90;;;;;;5072093;28;20103;-80
2022/04/12 05:27:11;;;;;;;16.10;8.68;;;6.00;99.90;;;;;;5080471;28;20056;-80
2022/04/12 05:29:37;;;;;;;13.13;7.43;;;6.10;99.90;;;;;;5078535;28;20418;-80
2022/04/12 05:32:04;;;;;;;11.60;6.70;;;6.20;99.90;;;;;;5054497;28;20054;-80
2022/04/12 05:34:29;;;;;;;15.07;7.28;;;6.30;99.90;;;;;;5069819;28;20043;-81
2022/04/12 05:36:55;;;;;;;13.93;7.13;;;6.40;99.90;;;;;;5069718;28;20421;-81
2022/04/12 05:39:20;;;;;;;14.05;7.50;;;6.50;99.90;;;;;;5053132;28;20399;-81
2022/04/12 05:41:46;;;;;;;12.30;7.35;;;6.70;99.90;;;;;;5069839;28;20519;-80
2022/04/12 05:44:11;;;;;;;13.30;7.30;;;6.70;99.90;;;;;;5071039;28;20044;-80
2022/04/12 05:46:37;;;;;;;13.70;7.32;;;6.80;99.90;;;;;;5074335;28;20136;-80
2022/04/12 05:49:02;;;;;;;13.35;7.22;;;7.00;99.90;;;;;;5074089;28;20127;-80
2022/04/12 05:51:28;;;;;;;11.82;6.72;;;7.20;99.90;;;;;;5073996;28;20044;-80
2022/04/12 05:53:54;;;;;;;13.70;7.28;;;7.20;99.90;;;;;;5073733;28;20041;-80
2022/04/12 05:56:19;;;;;;;15.00;6.82;;;7.30;99.90;;;;;;5073386;28;20087;-80
2022/04/12 05:58:45;;;;;;;14.40;6.55;;;7.40;99.90;;;;;;5073963;28;20040;-80
2022/04/12 06:01:10;;;;;;;13.07;6.90;;;7.40;99.90;;;;;;5073285;28;20079;-80
2022/04/12 06:03:36;;;;;;;14.95;7.28;;;7.50;99.90;;;;;;5073807;28;20045;-80
2022/04/12 06:06:01;;;;;;;10.90;6.10;;;7.50;99.90;;;;;;5073317;28;20578;-80
2022/04/12 06:08:28;;;;;;;14.55;6.72;;;7.50;99.90;;;;;;5073676;28;20044;-80
2022/04/12 06:10:53;;;;;;;11.77;7.57;;;7.60;99.90;;;;;;5073259;28;20053;-80
2022/04/12 06:13:19;;;;;;;12.77;7.75;;;7.60;99.90;;;;;;5073647;28;20403;-80
2022/04/12 06:15:45;;;;;;;12.82;6.82;;;7.60;99.90;;;;;;5073989;28;20090;-80
2022/04/12 06:18:10;;;;;;;14.18;7.63;;;7.70;99.90;;;;;;5073913;28;20502;-80
2022/04/12 06:20:36;;;;;;;16.17;6.95;;;7.70;99.90;;;;;;5073668;28;20044;-80
2022/04/12 06:23:03;;;;;;;12.98;6.93;;;7.80;99.90;;;;;;5056657;28;20050;-80
2022/04/12 06:25:28;;;;;;;13.98;6.90;;;7.90;99.90;;;;;;5073517;28;20055;-81
2022/04/12 06:34:24;;;;;;;13.77;6.78;;;8.30;99.90;;;;;;4932341;22;20062;-80
2022/04/12 06:41:54;;;;;;;;;;;;;;;;;;;;;
2022/04/12 06:44:41;;;;;;;14.07;6.90;;;8.50;99.90;;;;;;4862157;29;20081;-80
2022/04/12 06:47:36;;;;;;;10.38;6.05;;;8.50;99.90;;;;;;4893290;29;20076;-80
2022/04/12 06:54:53;;;;;;;9.18;7.05;;;8.50;99.90;;;;;;4884152;29;20071;-80
2022/04/12 06:57:56;;;;;;;;;;;;;;;;;;;;;
2022/04/12 07:10:11;;;;;;;12.80;6.43;;;8.90;99.90;;;;;;4773139;26;20413;-78
2022/04/12 07:12:37;;;;;;;9.50;6.40;;;8.90;99.90;;;;;;4979549;28;20046;-78
2022/04/12 07:15:03;;;;;;;11.55;6.00;;;9.00;99.90;;;;;;4979526;28;20125;-78
2022/04/12 07:17:29;;;;;;;10.18;6.10;;;9.10;99.90;;;;;;4985311;28;20045;-78
2022/04/12 07:19:55;;;;;;;14.73;6.53;;;9.30;99.90;;;;;;4995628;28;20038;-78
2022/04/12 07:22:21;;;;;;;11.30;6.63;;;9.50;99.90;;;;;;5012922;28;20092;-79
2022/04/12 07:24:46;;;;;;;10.52;6.60;;;9.80;99.90;;;;;;4995157;28;20122;-78
2022/04/12 07:27:12;;;;;;;10.75;6.00;;;10.40;99.90;;;;;;5011813;28;20124;-78
2022/04/12 07:29:38;;;;;;;12.65;6.60;;;11.10;99.90;;;;;;5011401;28;20100;-79
2022/04/12 07:32:04;;;;;;;11.30;6.70;;;11.60;99.90;;;;;;5011601;28;20617;-78
2022/04/12 07:34:30;;;;;;;8.40;5.88;;;12.20;99.90;;;;;;4995645;28;20392;-78
2022/04/12 07:36:55;;;;;;;8.77;5.90;;;12.60;99.90;;;;;;5012867;28;20034;-79
2022/04/12 07:39:22;;;;;;;11.80;7.00;;;13.00;99.90;;;;;;5016293;28;20034;-79
2022/04/12 07:41:49;;;;;;;11.20;6.00;;;13.30;99.90;;;;;;4998342;28;20038;-79
2022/04/12 07:44:16;;;;;;;10.88;6.38;;;13.60;99.90;;;;;;5015992;28;20037;-79
2022/04/12 07:46:42;;;;;;;8.90;6.45;;;13.70;99.90;;;;;;5013766;28;20465;-79
2022/04/12 07:49:07;;;;;;;13.70;6.60;;;14.00;99.90;;;;;;5012514;28;20091;-79
2022/04/12 07:51:33;;;;;;;10.77;6.20;;;14.10;99.90;;;;;;4997051;28;20042;-79
2022/04/12 07:54:00;;;;;;;12.23;6.25;;;14.30;98.90;;;;;;5013723;28;20034;-79
2022/04/12 07:56:27;;;;;;;11.20;6.25;;;14.60;98.40;;;;;;5014365;28;20133;-79
2022/04/12 07:58:53;;;;;;;10.25;6.05;;;14.90;96.40;;;;;;5029650;28;20045;-79
2022/04/12 08:01:18;;;;;;;11.18;5.43;;;15.20;94.00;;;;;;5015727;28;20042;-79
2022/04/12 08:03:44;;;;;;;10.35;6.50;;;15.20;91.30;;;;;;4997663;28;20045;-80
2022/04/12 08:06:09;;;;;;;9.48;5.80;;;15.20;91.00;;;;;;5012447;28;20060;-79
2022/04/12 08:08:35;;;;;;;13.90;6.32;;;15.40;90.90;;;;;;5013428;28;20042;-79
2022/04/12 08:11:01;;;;;;;8.52;5.68;;;15.50;87.80;;;;;;5013414;28;20038;-79
2022/04/12 08:13:27;;;;;;;11.90;6.78;;;15.40;84.80;;;;;;5015885;28;20514;-79
2022/04/12 08:15:52;;;;;;;10.25;6.15;;;15.60;83.70;;;;;;5014361;28;20118;-79
2022/04/12 08:18:18;;;;;;;8.88;6.07;;;15.70;82.30;;;;;;5014608;28;20057;-80
2022/04/12 08:20:43;;;;;;;9.45;5.72;;;15.70;80.70;;;;;;5013891;28;20073;-80
2022/04/12 08:23:09;;;;;;;11.57;6.20;;;15.60;79.50;;;;;;5013388;28;20107;-79
2022/04/12 08:25:34;;;;;;;10.75;6.00;;;15.60;79.00;;;;;;5008023;28;20042;-80
2022/04/12 08:28:00;;;;;;;9.35;6.05;;;15.50;77.20;;;;;;5024721;28;20402;-80
2022/04/12 08:30:26;;;;;;;10.68;5.68;;;15.50;78.10;;;;;;5018801;28;20039;-79
2022/04/12 08:32:51;;;;;;;9.23;6.10;;;15.60;78.00;;;;;;5011624;28;20046;-81
2022/04/12 08:35:17;;;;;;;10.43;6.07;;;15.70;77.60;;;;;;5011442;28;20041;-81
2022/04/12 08:37:44;;;;;;;10.57;6.32;;;16.10;76.20;;;;;;4997442;28;20481;-81
2022/04/12 08:40:10;;;;;;;11.93;6.13;;;16.30;74.40;;;;;;5012705;28;20524;-81
2022/04/12 08:42:46;;;;;;;10.27;6.78;;;16.50;74.00;;;;;;5004754;28;20030;-81
2022/04/12 08:45:12;;;;;;;7.07;5.63;;;16.70;73.30;;;;;;4993423;28;20049;-80
2022/04/12 08:47:39;;;;;;;12.02;6.60;;;17.00;72.30;;;;;;4976487;28;20034;-81
2022/04/12 08:50:07;;;;;;;8.07;5.53;;;16.90;71.40;;;;;;4993352;28;20085;-81
2022/04/12 08:52:33;;;;;;;10.23;6.63;;;17.10;69.90;;;;;;4994520;28;20038;-81
2022/04/12 08:54:59;;;;;;;11.00;6.57;;;17.20;72.10;;;;;;4978272;28;20039;-81
2022/04/12 08:57:25;;;;;;;9.80;6.28;;;17.30;70.00;;;;;;4994902;28;20120;-81
2022/04/12 08:59:51;;;;;;;9.70;6.20;;;17.50;70.10;;;;;;4977783;28;20137;-81
2022/04/12 09:02:16;;;;;;;12.90;6.28;;;17.70;69.60;;;;;;4992843;28;20374;-81
2022/04/12 09:04:42;;;;;;;9.52;5.80;;;17.70;68.80;;;;;;4993170;28;20473;-81
2022/04/12 09:07:09;;;;;;;10.32;5.75;;;17.70;68.30;;;;;;4975950;28;20053;-81
2022/04/12 09:09:37;;;;;;;9.23;5.15;;;17.80;68.20;;;;;;4991824;28;20520;-81
2022/04/12 09:12:14;;;;;;;8.70;5.65;;;17.90;67.50;;;;;;4975990;28;20042;-81
2022/04/12 09:14:52;;;;;;;9.15;6.30;;;17.90;63.90;;;;;;4992278;28;20049;-81
2022/04/12 09:17:35;;;;;;;10.07;6.43;;;17.90;65.20;;;;;;4991919;28;20457;-81
2022/04/12 09:20:02;;;;;;;8.88;5.82;;;17.70;63.80;;;;;;4974093;28;20081;-81
2022/04/12 09:22:28;;;;;;;11.45;6.45;;;17.50;65.90;;;;;;4991250;28;20493;-82
2022/04/12 09:24:58;;;;;;;8.18;5.35;;;17.30;66.40;;;;;;4974862;28;20126;-81
2022/04/12 09:27:27;;;;;;;11.82;6.20;;;17.40;65.20;;;;;;4991700;28;20031;-81
2022/04/12 09:29:54;;;;;;;9.82;6.18;;;17.70;65.30;;;;;;4991972;28;20126;-81
2022/04/12 09:32:25;;;;;;;12.27;6.25;;;18.00;64.60;;;;;;4976998;28;20039;-81
2022/04/12 09:34:52;;;;;;;8.23;5.35;;;18.30;64.40;;;;;;4998654;28;20069;-81
2022/04/12 09:37:32;;;;;;;8.75;5.43;;;18.40;63.30;;;;;;4997852;28;20437;-81
2022/04/12 09:40:01;;;;;;;7.88;5.53;;;18.50;63.70;;;;;;4975267;28;20042;-81
2022/04/12 09:42:45;;;;;;;13.23;6.07;;;18.60;62.70;;;;;;4991949;28;20105;-81
2022/04/12 09:45:13;;;;;;;8.23;5.43;;;18.90;61.10;;;;;;4991590;28;20053;-80
2022/04/12 09:47:39;;;;;;;9.55;5.68;;;19.00;60.80;;;;;;4974612;28;20100;-78
2022/04/12 09:50:06;;;;;;;8.75;5.22;;;19.30;61.50;;;;;;4991892;28;20118;-81
2022/04/12 09:52:31;;;;;;;9.98;5.20;;;19.40;61.10;;;;;;4990853;28;20030;-81
2022/04/12 09:54:57;;;;;;;8.32;4.97;;;19.50;60.30;;;;;;4990803;28;20038;-81
2022/04/12 09:57:24;;;;;;;9.43;5.13;;;19.50;59.60;;;;;;4974484;28;20500;-82
2022/04/12 09:59:53;;;;;;;11.63;4.95;;;19.50;59.70;;;;;;4991498;28;20054;-82
2022/04/12 10:02:19;;;;;;;7.22;4.97;;;19.30;58.70;;;;;;4992004;28;20046;-81
2022/04/12 10:04:46;;;;;;;10.77;5.35;;;19.30;59.40;;;;;;4990786;28;20042;-81
2022/04/12 10:07:17;;;;;;;7.68;4.60;;;19.30;59.50;;;;;;4990788;28;20050;-82
2022/04/12 10:09:43;;;;;;;8.10;5.22;;;19.40;58.20;;;;;;4990672;28;20042;-81
2022/04/12 10:12:09;;;;;;;10.95;5.63;;;19.30;58.10;;;;;;4992052;28;20048;-82
2022/04/12 10:14:35;;;;;;;9.98;5.65;;;19.20;58.00;;;;;;4975308;28;20054;-81
2022/04/12 10:17:03;;;;;;;8.57;5.75;;;19.20;58.50;;;;;;4991578;28;20034;-81
2022/04/12 10:19:30;;;;;;;7.35;5.57;;;19.10;58.70;;;;;;4992538;28;20113;-81
2022/04/12 10:21:55;;;;;;;11.50;5.25;;;19.10;58.70;;;;;;4991401;28;20050;-81
2022/04/12 10:24:22;;;;;;;8.95;6.28;;;19.10;58.00;;;;;;4992086;28;20045;-81
2022/04/12 10:26:49;;;;;;;15.20;7.30;;;19.20;58.00;;;;;;4974394;28;20050;-81
2022/04/12 10:29:15;;;;;;;10.77;5.55;;;19.10;58.60;;;;;;4991877;28;20382;-82
2022/04/12 10:32:00;;;;;;;8.75;5.50;;;19.10;58.30;;;;;;4976686;28;20141;-81
2022/04/12 10:34:26;;;;;;;8.13;5.45;;;19.20;58.10;;;;;;4978913;28;20050;-82
2022/04/12 10:36:54;;;;;;;11.13;5.88;;;19.20;59.30;;;;;;4994749;28;20038;-81
2022/04/12 10:39:24;;;;;;;8.82;5.22;;;19.20;58.60;;;;;;4978524;28;20038;-81
2022/04/12 10:41:51;;;;;;;11.48;5.88;;;19.10;58.70;;;;;;4995487;28;20515;-81
2022/04/12 10:44:21;;;;;;;8.40;5.15;;;19.00;58.40;;;;;;4996012;28;20105;-81
2022/04/12 10:46:48;;;;;;;11.80;5.78;;;19.00;58.10;;;;;;4978467;28;20097;-81
2022/04/12 10:49:18;;;;;;;13.35;6.70;;;19.00;58.30;;;;;;4977770;28;20397;-81
2022/04/12 10:51:44;;;;;;;11.13;6.70;;;18.80;57.50;;;;;;4979346;28;20086;-81
2022/04/12 10:54:31;;;;;;;11.88;6.38;;;18.80;58.10;;;;;;4978095;28;20042;-82
2022/04/12 10:57:16;;;;;;;9.48;5.30;;;18.80;58.10;;;;;;4981963;28;20034;-80
2022/04/12 11:00:08;;;;;;;9.95;5.57;;;18.80;55.20;;;;;;4996904;28;20401;-81
2022/04/12 11:02:45;;;;;;;9.20;5.25;;;18.90;57.20;;;;;;4991893;28;20061;-81
2022/04/12 11:05:32;;;;;;;9.85;5.55;;;18.90;57.20;;;;;;4983575;28;20085;-81
2022/04/12 11:07:58;;;;;;;10.02;5.60;;;19.00;55.90;;;;;;4995268;28;20061;-80
2022/04/12 11:10:24;;;;;;;12.65;6.05;;;18.90;58.00;;;;;;4978574;28;20046;-81
2022/04/12 11:12:50;;;;;;;8.75;5.70;;;18.90;57.90;;;;;;4979668;28;20130;-81
2022/04/12 11:15:25;;;;;;;9.75;5.40;;;18.90;57.80;;;;;;4997334;28;20395;-80
2022/04/12 11:18:10;;;;;;;13.75;6.15;;;18.90;57.80;;;;;;4996471;28;20520;-81
2022/04/12 11:20:37;;;;;;;12.85;5.97;;;18.90;58.80;;;;;;4996324;28;20038;-81
2022/04/12 11:23:08;;;;;;;12.38;6.18;;;18.90;58.50;;;;;;4994508;28;20046;-81
2022/04/12 11:25:36;;;;;;;12.98;6.38;;;19.00;58.20;;;;;;4978202;28;20053;-80
2022/04/12 11:28:02;;;;;;;10.50;5.95;;;19.00;58.70;;;;;;4978722;28;20034;-81
2022/04/12 11:30:28;;;;;;;9.10;6.35;;;19.00;58.70;;;;;;4993872;28;20088;-81
2022/04/12 11:32:55;;;;;;;11.07;5.93;;;19.00;58.50;;;;;;4995910;28;20705;-80
2022/04/12 11:35:23;;;;;;;10.10;6.03;;;19.00;58.60;;;;;;4979069;28;20038;-81
2022/04/12 11:37:49;;;;;;;10.98;6.03;;;18.90;58.40;;;;;;4978489;28;20046;-81
2022/04/12 11:40:15;;;;;;;11.38;6.13;;;19.00;58.20;;;;;;4978327;28;20061;-81
2022/04/12 11:42:41;;;;;;;15.35;6.93;;;19.10;58.70;;;;;;4996778;28;20038;-81
2022/04/12 11:45:07;;;;;;;11.55;5.47;;;19.20;58.30;;;;;;4979401;28;20054;-80
2022/04/12 11:47:39;;;;;;;9.32;5.47;;;19.20;58.50;;;;;;4977107;28;20038;-81
2022/04/12 11:50:17;;;;;;;9.85;6.22;;;19.20;59.30;;;;;;4994844;28;20049;-81
2022/04/12 11:52:46;;;;;;;13.48;5.80;;;19.40;58.30;;;;;;4997238;28;20096;-81
2022/04/12 11:55:12;;;;;;;11.50;6.70;;;19.50;58.20;;;;;;4993279;28;20039;-81
2022/04/12 11:57:38;;;;;;;11.65;5.78;;;19.70;58.00;;;;;;4995573;28;20154;-82
2022/04/12 12:00:04;;;;;;;16.48;6.65;;;19.80;57.80;;;;;;4996313;28;20054;-81
2022/04/12 12:02:32;;;;;;;14.77;7.10;;;19.90;58.00;;;;;;4993187;28;20034;-80
2022/04/12 12:05:06;;;;;;;10.50;6.38;;;20.10;58.40;;;;;;4993505;28;20129;-81
2022/04/12 12:07:36;;;;;;;11.02;6.00;;;20.30;58.20;;;;;;4998917;28;20081;-81
2022/04/12 12:10:13;;;;;;;11.73;6.43;;;20.30;57.20;;;;;;5000228;28;20038;-81
2022/04/12 12:12:41;;;;;;;9.63;6.05;;;20.20;57.30;;;;;;4994585;28;20078;-81
2022/04/12 12:15:27;;;;;;;10.52;5.78;;;20.20;57.20;;;;;;5004210;28;20042;-81
2022/04/12 12:17:55;;;;;;;10.40;5.45;;;20.20;55.10;;;;;;5003902;28;20120;-82
2022/04/12 12:20:22;;;;;;;12.63;5.85;;;20.20;56.20;;;;;;4987752;28;20045;-81
2022/04/12 12:22:53;;;;;;;7.80;4.97;;;20.20;56.00;;;;;;4995384;28;20045;-81
2022/04/12 12:25:19;;;;;;;13.27;5.72;;;20.10;55.60;;;;;;4977489;28;20469;-83
2022/04/12 12:27:53;;;;;;;11.90;5.53;;;20.10;56.00;;;;;;4995861;28;20039;-81
2022/04/12 12:30:24;;;;;;;11.07;5.90;;;20.10;55.60;;;;;;4993368;28;20045;-81
2022/04/12 12:32:56;;;;;;;11.70;5.43;;;20.30;55.80;;;;;;4995144;28;20034;-81
2022/04/12 12:35:25;;;;;;;9.77;5.88;;;20.30;55.30;;;;;;4995509;28;20097;-81
2022/04/12 12:38:16;;;;;;;10.20;5.55;;;20.50;55.30;;;;;;4995602;28;20046;-82
2022/04/12 12:40:44;;;;;;;9.93;5.60;;;20.50;54.40;;;;;;4993746;28;20042;-81
2022/04/12 12:43:12;;;;;;;11.75;5.68;;;20.60;55.00;;;;;;4995411;28;20085;-82
2022/04/12 12:45:46;;;;;;;11.43;6.10;;;20.60;55.10;;;;;;4995370;28;20469;-82
2022/04/12 12:48:16;;;;;;;15.00;6.38;;;20.60;54.10;;;;;;4977580;28;20053;-82
2022/04/12 12:50:42;;;;;;;10.90;5.57;;;20.40;54.50;;;;;;4993579;28;20513;-82
2022/04/12 12:53:10;;;;;;;11.90;6.05;;;20.20;54.90;;;;;;4980015;28;20069;-82
2022/04/12 12:55:40;;;;;;;11.00;5.93;;;20.20;54.90;;;;;;4996264;28;20034;-82
2022/04/12 12:58:13;;;;;;;10.95;5.47;;;20.30;54.90;;;;;;4977553;28;20076;-81
2022/04/12 13:00:40;;;;;;;13.25;6.80;;;20.40;55.80;;;;;;4992512;28;20529;-81
2022/04/12 13:03:09;;;;;;;11.77;6.50;;;20.40;55.80;;;;;;4992092;28;20069;-81
2022/04/12 13:05:36;;;;;;;11.43;5.95;;;20.30;55.60;;;;;;4997470;28;20117;-81
2022/04/12 13:08:03;;;;;;;11.93;6.40;;;20.30;55.20;;;;;;4993285;28;20042;-81
2022/04/12 13:10:32;;;;;;;17.23;8.13;;;20.20;55.80;;;;;;4991520;28;20035;-81
2022/04/12 13:12:58;;;;;;;11.50;6.18;;;20.10;56.20;;;;;;4994148;28;20046;-81
2022/04/12 13:15:24;;;;;;;11.73;6.60;;;20.10;56.50;;;;;;4978180;28;20042;-81